sensor_id;sensor_type;location;lat;lon;timestamp;P1;durP1;ratioP1;P2;durP2;ratioP2
26201;SDS011;13944;28.562;77.188;2023-04-15T00:02:16;138.52;;;61.33;;
26201;SDS011;13944;28.562;77.188;2023-04-15T00:04:44;137.45;;;60.92;;
26201;SDS011;13944;28.562;77.188;2023-04-15T00:07:11;144.68;;;61.85;;
26201;SDS011;13944;28.562;77.188;2023-04-15T00:09:38;144.75;;;63.00;;
26201;SDS011;13944;28.562;77.188;2023-04-15T00:12:04;140.70;;;61.25;;
26201;SDS011;13944;28.562;77.188;2023-04-15T00:14:32;145.38;;;61.17;;
26201;SDS011;13944;28.562;77.188;2023-04-15T00:16:59;260.15;;;70.35;;
26201;SDS011;13944;28.562;77.188;2023-04-15T00:19:26;167.52;;;63.88;;
26201;SDS011;13944;28.562;77.188;2023-04-15T00:21:53;143.63;;;63.30;;
26201;SDS011;13944;28.562;77.188;2023-04-15T00:24:19;142.50;;;63.83;;
26201;SDS011;13944;28.562;77.188;2023-04-15T00:26:46;147.57;;;63.42;;
26201;SDS011;13944;28.562;77.188;2023-04-15T00:29:13;139.60;;;62.92;;
26201;SDS011;13944;28.562;77.188;2023-04-15T00:31:39;132.15;;;61.70;;
26201;SDS011;13944;28.562;77.188;2023-04-15T00:34:06;144.73;;;63.00;;
26201;SDS011;13944;28.562;77.188;2023-04-15T00:36:33;146.20;;;61.42;;
26201;SDS011;13944;28.562;77.188;2023-04-15T00:39:00;135.00;;;62.17;;
26201;SDS011;13944;28.562;77.188;2023-04-15T00:41:27;142.27;;;62.28;;
26201;SDS011;13944;28.562;77.188;2023-04-15T00:43:54;142.48;;;60.22;;
26201;SDS011;13944;28.562;77.188;2023-04-15T00:46:20;134.57;;;59.20;;
26201;SDS011;13944;28.562;77.188;2023-04-15T00:48:47;160.48;;;61.90;;
26201;SDS011;13944;28.562;77.188;2023-04-15T00:51:14;132.75;;;58.28;;
26201;SDS011;13944;28.562;77.188;2023-04-15T00:53:41;173.27;;;61.55;;
26201;SDS011;13944;28.562;77.188;2023-04-15T00:56:08;153.07;;;60.30;;
26201;SDS011;13944;28.562;77.188;2023-04-15T00:58:34;137.45;;;56.25;;
26201;SDS011;13944;28.562;77.188;2023-04-15T01:01:01;143.05;;;57.80;;
26201;SDS011;13944;28.562;77.188;2023-04-15T01:03:28;132.63;;;57.67;;
26201;SDS011;13944;28.562;77.188;2023-04-15T01:05:55;141.38;;;59.22;;
26201;SDS011;13944;28.562;77.188;2023-04-15T01:08:28;136.43;;;59.50;;
26201;SDS011;13944;28.562;77.188;2023-04-15T01:10:55;141.43;;;59.53;;
26201;SDS011;13944;28.562;77.188;2023-04-15T01:13:25;133.00;;;56.67;;
26201;SDS011;13944;28.562;77.188;2023-04-15T01:15:52;128.85;;;57.22;;
26201;SDS011;13944;28.562;77.188;2023-04-15T01:18:18;130.15;;;58.60;;
26201;SDS011;13944;28.562;77.188;2023-04-15T01:20:45;139.27;;;58.05;;
26201;SDS011;13944;28.562;77.188;2023-04-15T01:23:12;146.40;;;56.72;;
26201;SDS011;13944;28.562;77.188;2023-04-15T01:25:38;131.45;;;55.90;;
26201;SDS011;13944;28.562;77.188;2023-04-15T01:28:06;145.10;;;57.10;;
26201;SDS011;13944;28.562;77.188;2023-04-15T01:30:34;131.30;;;56.90;;
26201;SDS011;13944;28.562;77.188;2023-04-15T01:33:01;132.20;;;56.95;;
26201;SDS011;13944;28.562;77.188;2023-04-15T01:35:27;120.95;;;56.90;;
26201;SDS011;13944;28.562;77.188;2023-04-15T01:37:54;140.40;;;56.17;;
26201;SDS011;13944;28.562;77.188;2023-04-15T01:40:23;125.05;;;56.60;;
26201;SDS011;13944;28.562;77.188;2023-04-15T01:42:49;122.53;;;54.08;;
26201;SDS011;13944;28.562;77.188;2023-04-15T01:45:16;118.90;;;54.08;;
26201;SDS011;13944;28.562;77.188;2023-04-15T01:47:43;131.57;;;57.08;;
26201;SDS011;13944;28.562;77.188;2023-04-15T01:50:09;132.02;;;57.58;;
26201;SDS011;13944;28.562;77.188;2023-04-15T01:52:36;127.90;;;58.08;;
26201;SDS011;13944;28.562;77.188;2023-04-15T01:55:03;127.82;;;55.20;;
26201;SDS011;13944;28.562;77.188;2023-04-15T01:57:30;124.38;;;57.78;;
26201;SDS011;13944;28.562;77.188;2023-04-15T01:59:56;128.63;;;55.97;;
26201;SDS011;13944;28.562;77.188;2023-04-15T02:02:23;143.70;;;58.47;;
26201;SDS011;13944;28.562;77.188;2023-04-15T02:04:50;123.30;;;59.40;;
26201;SDS011;13944;28.562;77.188;2023-04-15T02:07:17;118.93;;;56.55;;
26201;SDS011;13944;28.562;77.188;2023-04-15T02:09:44;137.65;;;57.22;;
26201;SDS011;13944;28.562;77.188;2023-04-15T02:12:10;138.07;;;57.42;;
26201;SDS011;13944;28.562;77.188;2023-04-15T02:14:37;138.35;;;59.95;;
26201;SDS011;13944;28.562;77.188;2023-04-15T02:17:04;135.15;;;60.15;;
26201;SDS011;13944;28.562;77.188;2023-04-15T02:19:34;137.35;;;61.10;;
26201;SDS011;13944;28.562;77.188;2023-04-15T02:22:00;141.32;;;61.88;;
26201;SDS011;13944;28.562;77.188;2023-04-15T02:24:28;133.93;;;60.58;;
26201;SDS011;13944;28.562;77.188;2023-04-15T02:26:55;141.25;;;61.55;;
26201;SDS011;13944;28.562;77.188;2023-04-15T02:29:22;126.50;;;59.15;;
26201;SDS011;13944;28.562;77.188;2023-04-15T02:31:48;135.00;;;60.20;;
26201;SDS011;13944;28.562;77.188;2023-04-15T02:34:15;132.15;;;59.30;;
26201;SDS011;13944;28.562;77.188;2023-04-15T02:36:41;114.85;;;57.85;;
26201;SDS011;13944;28.562;77.188;2023-04-15T02:39:08;121.50;;;57.45;;
26201;SDS011;13944;28.562;77.188;2023-04-15T02:41:35;128.27;;;57.85;;
26201;SDS011;13944;28.562;77.188;2023-04-15T02:44:02;124.82;;;56.97;;
26201;SDS011;13944;28.562;77.188;2023-04-15T02:46:28;120.80;;;57.33;;
26201;SDS011;13944;28.562;77.188;2023-04-15T02:48:55;136.48;;;57.13;;
26201;SDS011;13944;28.562;77.188;2023-04-15T02:51:23;125.70;;;56.42;;
26201;SDS011;13944;28.562;77.188;2023-04-15T02:53:50;130.75;;;57.30;;
26201;SDS011;13944;28.562;77.188;2023-04-15T02:56:16;133.15;;;57.58;;
26201;SDS011;13944;28.562;77.188;2023-04-15T02:58:43;125.35;;;57.40;;
26201;SDS011;13944;28.562;77.188;2023-04-15T03:01:10;135.27;;;58.17;;
26201;SDS011;13944;28.562;77.188;2023-04-15T03:03:37;119.38;;;55.50;;
26201;SDS011;13944;28.562;77.188;2023-04-15T03:06:04;127.80;;;56.15;;
26201;SDS011;13944;28.562;77.188;2023-04-15T03:08:31;112.15;;;53.33;;
26201;SDS011;13944;28.562;77.188;2023-04-15T03:10:58;117.68;;;54.38;;
26201;SDS011;13944;28.562;77.188;2023-04-15T03:13:26;119.68;;;54.03;;
26201;SDS011;13944;28.562;77.188;2023-04-15T03:15:53;108.55;;;53.05;;
26201;SDS011;13944;28.562;77.188;2023-04-15T03:18:20;110.63;;;51.22;;
26201;SDS011;13944;28.562;77.188;2023-04-15T03:20:46;111.32;;;50.30;;
26201;SDS011;13944;28.562;77.188;2023-04-15T03:23:13;105.72;;;50.10;;
26201;SDS011;13944;28.562;77.188;2023-04-15T03:25:39;90.50;;;48.83;;
26201;SDS011;13944;28.562;77.188;2023-04-15T03:28:06;101.40;;;48.42;;
26201;SDS011;13944;28.562;77.188;2023-04-15T03:30:32;84.85;;;47.20;;
26201;SDS011;13944;28.562;77.188;2023-04-15T03:32:59;90.22;;;46.78;;
26201;SDS011;13944;28.562;77.188;2023-04-15T03:35:25;88.15;;;42.88;;
26201;SDS011;13944;28.562;77.188;2023-04-15T03:37:52;92.30;;;41.20;;
26201;SDS011;13944;28.562;77.188;2023-04-15T03:40:19;83.28;;;41.95;;
26201;SDS011;13944;28.562;77.188;2023-04-15T03:42:46;83.82;;;40.67;;
26201;SDS011;13944;28.562;77.188;2023-04-15T03:45:13;79.63;;;38.72;;
26201;SDS011;13944;28.562;77.188;2023-04-15T03:47:39;76.70;;;36.78;;
26201;SDS011;13944;28.562;77.188;2023-04-15T03:50:06;96.68;;;46.25;;
26201;SDS011;13944;28.562;77.188;2023-04-15T03:52:33;90.32;;;41.75;;
26201;SDS011;13944;28.562;77.188;2023-04-15T03:54:59;86.35;;;39.15;;
26201;SDS011;13944;28.562;77.188;2023-04-15T03:57:26;70.85;;;34.15;;
26201;SDS011;13944;28.562;77.188;2023-04-15T03:59:53;67.82;;;29.02;;
26201;SDS011;13944;28.562;77.188;2023-04-15T04:02:19;66.85;;;29.35;;
26201;SDS011;13944;28.562;77.188;2023-04-15T04:04:47;55.20;;;26.05;;
26201;SDS011;13944;28.562;77.188;2023-04-15T04:07:16;48.47;;;24.70;;
26201;SDS011;13944;28.562;77.188;2023-04-15T04:09:43;59.30;;;24.67;;
26201;SDS011;13944;28.562;77.188;2023-04-15T04:12:10;48.58;;;23.10;;
26201;SDS011;13944;28.562;77.188;2023-04-15T04:14:36;51.05;;;23.58;;
26201;SDS011;13944;28.562;77.188;2023-04-15T04:17:03;53.92;;;23.88;;
26201;SDS011;13944;28.562;77.188;2023-04-15T04:19:29;47.13;;;21.45;;
26201;SDS011;13944;28.562;77.188;2023-04-15T04:21:56;51.50;;;21.70;;
26201;SDS011;13944;28.562;77.188;2023-04-15T04:24:22;45.55;;;22.02;;
26201;SDS011;13944;28.562;77.188;2023-04-15T04:26:49;52.67;;;21.50;;
26201;SDS011;13944;28.562;77.188;2023-04-15T04:29:16;43.88;;;19.50;;
26201;SDS011;13944;28.562;77.188;2023-04-15T04:31:42;44.38;;;20.55;;
26201;SDS011;13944;28.562;77.188;2023-04-15T04:34:09;46.25;;;19.35;;
26201;SDS011;13944;28.562;77.188;2023-04-15T04:36:35;45.40;;;19.58;;
26201;SDS011;13944;28.562;77.188;2023-04-15T04:39:02;44.58;;;19.38;;
26201;SDS011;13944;28.562;77.188;2023-04-15T04:41:28;51.88;;;20.02;;
26201;SDS011;13944;28.562;77.188;2023-04-15T04:43:56;41.13;;;18.25;;
26201;SDS011;13944;28.562;77.188;2023-04-15T04:46:23;43.65;;;21.30;;
26201;SDS011;13944;28.562;77.188;2023-04-15T04:48:49;47.13;;;18.48;;
26201;SDS011;13944;28.562;77.188;2023-04-15T04:51:16;45.28;;;17.70;;
26201;SDS011;13944;28.562;77.188;2023-04-15T04:53:43;40.75;;;18.02;;
26201;SDS011;13944;28.562;77.188;2023-04-15T04:56:09;42.58;;;21.70;;
26201;SDS011;13944;28.562;77.188;2023-04-15T04:58:36;50.45;;;24.45;;
26201;SDS011;13944;28.562;77.188;2023-04-15T05:01:02;40.10;;;21.00;;
26201;SDS011;13944;28.562;77.188;2023-04-15T05:03:29;41.80;;;18.88;;
26201;SDS011;13944;28.562;77.188;2023-04-15T05:05:56;39.92;;;18.27;;
26201;SDS011;13944;28.562;77.188;2023-04-15T05:08:22;40.40;;;17.25;;
26201;SDS011;13944;28.562;77.188;2023-04-15T05:10:49;32.13;;;15.43;;
26201;SDS011;13944;28.562;77.188;2023-04-15T05:13:16;41.67;;;16.58;;
26201;SDS011;13944;28.562;77.188;2023-04-15T05:15:42;35.50;;;15.23;;
26201;SDS011;13944;28.562;77.188;2023-04-15T05:18:09;31.15;;;14.63;;
26201;SDS011;13944;28.562;77.188;2023-04-15T05:20:36;42.00;;;13.70;;
26201;SDS011;13944;28.562;77.188;2023-04-15T05:23:02;38.63;;;13.45;;
26201;SDS011;13944;28.562;77.188;2023-04-15T05:25:29;26.45;;;11.77;;
26201;SDS011;13944;28.562;77.188;2023-04-15T05:27:55;37.03;;;12.73;;
26201;SDS011;13944;28.562;77.188;2023-04-15T05:30:22;30.50;;;11.00;;
26201;SDS011;13944;28.562;77.188;2023-04-15T05:32:48;32.72;;;11.50;;
26201;SDS011;13944;28.562;77.188;2023-04-15T05:35:15;31.38;;;10.93;;
26201;SDS011;13944;28.562;77.188;2023-04-15T05:37:42;27.52;;;10.98;;
26201;SDS011;13944;28.562;77.188;2023-04-15T05:40:08;25.67;;;9.60;;
26201;SDS011;13944;28.562;77.188;2023-04-15T05:42:35;30.35;;;10.13;;
26201;SDS011;13944;28.562;77.188;2023-04-15T05:45:02;30.13;;;10.02;;
26201;SDS011;13944;28.562;77.188;2023-04-15T05:47:33;27.45;;;8.82;;
26201;SDS011;13944;28.562;77.188;2023-04-15T05:50:02;22.23;;;9.10;;
26201;SDS011;13944;28.562;77.188;2023-04-15T05:52:30;29.67;;;9.07;;
26201;SDS011;13944;28.562;77.188;2023-04-15T05:54:56;27.00;;;9.27;;
26201;SDS011;13944;28.562;77.188;2023-04-15T05:57:23;26.42;;;9.73;;
26201;SDS011;13944;28.562;77.188;2023-04-15T05:59:49;29.02;;;9.23;;
26201;SDS011;13944;28.562;77.188;2023-04-15T06:02:17;29.65;;;10.50;;
26201;SDS011;13944;28.562;77.188;2023-04-15T06:04:43;27.95;;;10.75;;
26201;SDS011;13944;28.562;77.188;2023-04-15T06:07:10;26.23;;;10.13;;
26201;SDS011;13944;28.562;77.188;2023-04-15T06:09:36;33.03;;;11.65;;
26201;SDS011;13944;28.562;77.188;2023-04-15T06:12:03;29.30;;;11.80;;
26201;SDS011;13944;28.562;77.188;2023-04-15T06:14:31;31.08;;;11.70;;
26201;SDS011;13944;28.562;77.188;2023-04-15T06:16:57;30.65;;;11.02;;
26201;SDS011;13944;28.562;77.188;2023-04-15T06:19:24;28.25;;;10.35;;
26201;SDS011;13944;28.562;77.188;2023-04-15T06:21:50;29.60;;;10.23;;
26201;SDS011;13944;28.562;77.188;2023-04-15T06:24:17;32.95;;;10.52;;
26201;SDS011;13944;28.562;77.188;2023-04-15T06:26:43;25.25;;;10.80;;
26201;SDS011;13944;28.562;77.188;2023-04-15T06:29:10;31.17;;;10.20;;
26201;SDS011;13944;28.562;77.188;2023-04-15T06:31:37;31.40;;;10.13;;
26201;SDS011;13944;28.562;77.188;2023-04-15T06:34:03;27.17;;;10.30;;
26201;SDS011;13944;28.562;77.188;2023-04-15T06:36:30;20.67;;;8.93;;
26201;SDS011;13944;28.562;77.188;2023-04-15T06:38:57;22.42;;;9.32;;
26201;SDS011;13944;28.562;77.188;2023-04-15T06:41:23;25.95;;;9.07;;
26201;SDS011;13944;28.562;77.188;2023-04-15T06:43:50;31.85;;;8.80;;
26201;SDS011;13944;28.562;77.188;2023-04-15T06:46:16;22.55;;;8.05;;
26201;SDS011;13944;28.562;77.188;2023-04-15T06:48:43;26.23;;;8.15;;
26201;SDS011;13944;28.562;77.188;2023-04-15T06:51:09;26.20;;;8.85;;
26201;SDS011;13944;28.562;77.188;2023-04-15T06:53:36;25.60;;;9.45;;
26201;SDS011;13944;28.562;77.188;2023-04-15T06:56:06;29.15;;;9.20;;
26201;SDS011;13944;28.562;77.188;2023-04-15T06:58:33;30.75;;;9.73;;
26201;SDS011;13944;28.562;77.188;2023-04-15T07:01:00;25.55;;;8.82;;
26201;SDS011;13944;28.562;77.188;2023-04-15T07:03:26;28.90;;;9.18;;
26201;SDS011;13944;28.562;77.188;2023-04-15T07:05:53;22.90;;;8.70;;
26201;SDS011;13944;28.562;77.188;2023-04-15T07:08:19;22.05;;;9.52;;
26201;SDS011;13944;28.562;77.188;2023-04-15T07:10:46;24.60;;;9.32;;
26201;SDS011;13944;28.562;77.188;2023-04-15T07:13:12;28.20;;;9.10;;
26201;SDS011;13944;28.562;77.188;2023-04-15T07:15:39;28.25;;;8.73;;
26201;SDS011;13944;28.562;77.188;2023-04-15T07:18:05;22.80;;;8.18;;
26201;SDS011;13944;28.562;77.188;2023-04-15T07:20:32;25.23;;;8.40;;
26201;SDS011;13944;28.562;77.188;2023-04-15T07:22:58;25.48;;;8.93;;
26201;SDS011;13944;28.562;77.188;2023-04-15T07:25:25;28.15;;;9.85;;
26201;SDS011;13944;28.562;77.188;2023-04-15T07:27:51;23.73;;;10.15;;
26201;SDS011;13944;28.562;77.188;2023-04-15T07:30:18;33.17;;;9.07;;
26201;SDS011;13944;28.562;77.188;2023-04-15T07:32:45;28.95;;;9.40;;
26201;SDS011;13944;28.562;77.188;2023-04-15T07:35:11;27.15;;;9.73;;
26201;SDS011;13944;28.562;77.188;2023-04-15T07:37:38;28.77;;;10.15;;
26201;SDS011;13944;28.562;77.188;2023-04-15T07:40:05;28.00;;;9.50;;
26201;SDS011;13944;28.562;77.188;2023-04-15T07:42:33;25.65;;;9.30;;
26201;SDS011;13944;28.562;77.188;2023-04-15T07:44:59;28.40;;;9.43;;
26201;SDS011;13944;28.562;77.188;2023-04-15T07:47:26;27.83;;;9.50;;
26201;SDS011;13944;28.562;77.188;2023-04-15T07:49:52;27.10;;;9.75;;
26201;SDS011;13944;28.562;77.188;2023-04-15T07:52:19;30.80;;;9.88;;
26201;SDS011;13944;28.562;77.188;2023-04-15T07:54:45;34.88;;;9.57;;
26201;SDS011;13944;28.562;77.188;2023-04-15T07:57:12;26.08;;;9.68;;
26201;SDS011;13944;28.562;77.188;2023-04-15T07:59:38;27.45;;;10.93;;
26201;SDS011;13944;28.562;77.188;2023-04-15T08:02:05;27.83;;;10.32;;
26201;SDS011;13944;28.562;77.188;2023-04-15T08:04:32;31.50;;;10.88;;
26201;SDS011;13944;28.562;77.188;2023-04-15T08:06:59;20.42;;;10.13;;
26201;SDS011;13944;28.562;77.188;2023-04-15T08:09:25;34.08;;;11.13;;
26201;SDS011;13944;28.562;77.188;2023-04-15T08:11:52;36.03;;;12.52;;
26201;SDS011;13944;28.562;77.188;2023-04-15T08:14:19;28.83;;;11.32;;
26201;SDS011;13944;28.562;77.188;2023-04-15T08:16:45;24.30;;;10.32;;
26201;SDS011;13944;28.562;77.188;2023-04-15T08:19:12;33.47;;;11.00;;
26201;SDS011;13944;28.562;77.188;2023-04-15T08:21:39;28.27;;;10.40;;
26201;SDS011;13944;28.562;77.188;2023-04-15T08:24:05;22.73;;;9.93;;
26201;SDS011;13944;28.562;77.188;2023-04-15T08:26:32;22.52;;;9.43;;
26201;SDS011;13944;28.562;77.188;2023-04-15T08:28:58;27.67;;;10.48;;
26201;SDS011;13944;28.562;77.188;2023-04-15T08:31:25;23.73;;;10.07;;
26201;SDS011;13944;28.562;77.188;2023-04-15T08:33:55;26.48;;;10.35;;
26201;SDS011;13944;28.562;77.188;2023-04-15T08:36:21;25.42;;;10.23;;
26201;SDS011;13944;28.562;77.188;2023-04-15T08:38:48;22.95;;;10.13;;
26201;SDS011;13944;28.562;77.188;2023-04-15T08:41:22;23.88;;;10.93;;
26201;SDS011;13944;28.562;77.188;2023-04-15T08:43:52;24.15;;;9.98;;
26201;SDS011;13944;28.562;77.188;2023-04-15T08:46:20;28.65;;;10.45;;
26201;SDS011;13944;28.562;77.188;2023-04-15T08:48:47;36.30;;;12.05;;
26201;SDS011;13944;28.562;77.188;2023-04-15T08:51:14;33.38;;;11.38;;
26201;SDS011;13944;28.562;77.188;2023-04-15T08:53:44;32.42;;;11.95;;
26201;SDS011;13944;28.562;77.188;2023-04-15T08:56:13;34.10;;;11.93;;
26201;SDS011;13944;28.562;77.188;2023-04-15T08:58:40;32.72;;;12.75;;
26201;SDS011;13944;28.562;77.188;2023-04-15T09:01:07;24.88;;;12.60;;
26201;SDS011;13944;28.562;77.188;2023-04-15T09:03:33;34.45;;;12.93;;
26201;SDS011;13944;28.562;77.188;2023-04-15T09:06:00;25.90;;;11.93;;
26201;SDS011;13944;28.562;77.188;2023-04-15T09:08:30;34.17;;;12.65;;
26201;SDS011;13944;28.562;77.188;2023-04-15T09:10:56;28.70;;;11.85;;
26201;SDS011;13944;28.562;77.188;2023-04-15T09:13:23;36.83;;;13.52;;
26201;SDS011;13944;28.562;77.188;2023-04-15T09:15:49;40.38;;;14.35;;
26201;SDS011;13944;28.562;77.188;2023-04-15T09:18:35;29.67;;;12.57;;
26201;SDS011;13944;28.562;77.188;2023-04-15T09:21:08;32.25;;;12.43;;
26201;SDS011;13944;28.562;77.188;2023-04-15T09:23:35;32.13;;;12.18;;
26201;SDS011;13944;28.562;77.188;2023-04-15T09:26:02;31.73;;;13.05;;
26201;SDS011;13944;28.562;77.188;2023-04-15T09:28:29;31.45;;;13.57;;
26201;SDS011;13944;28.562;77.188;2023-04-15T09:30:56;31.27;;;13.00;;
26201;SDS011;13944;28.562;77.188;2023-04-15T09:33:23;30.45;;;12.90;;
26201;SDS011;13944;28.562;77.188;2023-04-15T09:36:04;33.60;;;13.00;;
26201;SDS011;13944;28.562;77.188;2023-04-15T09:38:31;28.98;;;13.48;;
26201;SDS011;13944;28.562;77.188;2023-04-15T09:40:58;25.15;;;11.70;;
26201;SDS011;13944;28.562;77.188;2023-04-15T09:43:36;29.25;;;11.77;;
26201;SDS011;13944;28.562;77.188;2023-04-15T09:46:03;29.77;;;11.95;;
26201;SDS011;13944;28.562;77.188;2023-04-15T09:48:30;29.00;;;11.80;;
26201;SDS011;13944;28.562;77.188;2023-04-15T09:50:57;26.15;;;11.57;;
26201;SDS011;13944;28.562;77.188;2023-04-15T09:53:24;27.73;;;11.00;;
26201;SDS011;13944;28.562;77.188;2023-04-15T09:55:52;37.60;;;12.00;;
26201;SDS011;13944;28.562;77.188;2023-04-15T09:58:19;27.10;;;11.88;;
26201;SDS011;13944;28.562;77.188;2023-04-15T10:00:47;30.95;;;12.75;;
26201;SDS011;13944;28.562;77.188;2023-04-15T10:03:17;38.03;;;13.73;;
26201;SDS011;13944;28.562;77.188;2023-04-15T10:05:44;43.53;;;13.23;;
26201;SDS011;13944;28.562;77.188;2023-04-15T10:08:12;38.72;;;13.38;;
26201;SDS011;13944;28.562;77.188;2023-04-15T10:10:40;43.65;;;13.43;;
26201;SDS011;13944;28.562;77.188;2023-04-15T10:13:07;36.17;;;12.82;;
26201;SDS011;13944;28.562;77.188;2023-04-15T10:15:35;41.72;;;14.68;;
26201;SDS011;13944;28.562;77.188;2023-04-15T10:18:02;32.55;;;11.55;;
26201;SDS011;13944;28.562;77.188;2023-04-15T10:20:31;32.35;;;11.95;;
26201;SDS011;13944;28.562;77.188;2023-04-15T10:22:58;27.75;;;11.70;;
26201;SDS011;13944;28.562;77.188;2023-04-15T10:25:24;34.42;;;13.18;;
26201;SDS011;13944;28.562;77.188;2023-04-15T10:27:52;29.70;;;11.77;;
26201;SDS011;13944;28.562;77.188;2023-04-15T10:30:19;30.20;;;11.88;;
26201;SDS011;13944;28.562;77.188;2023-04-15T10:32:46;38.13;;;12.50;;
26201;SDS011;13944;28.562;77.188;2023-04-15T10:35:13;35.58;;;12.45;;
26201;SDS011;13944;28.562;77.188;2023-04-15T10:37:41;36.28;;;12.40;;
26201;SDS011;13944;28.562;77.188;2023-04-15T10:43:02;28.83;;;11.20;;
26201;SDS011;13944;28.562;77.188;2023-04-15T10:45:33;30.08;;;11.88;;
26201;SDS011;13944;28.562;77.188;2023-04-15T10:48:01;26.50;;;11.40;;
26201;SDS011;13944;28.562;77.188;2023-04-15T10:50:29;32.38;;;12.00;;
26201;SDS011;13944;28.562;77.188;2023-04-15T10:52:57;22.92;;;10.43;;
26201;SDS011;13944;28.562;77.188;2023-04-15T10:55:24;25.98;;;11.18;;
26201;SDS011;13944;28.562;77.188;2023-04-15T10:57:52;26.30;;;11.55;;
26201;SDS011;13944;28.562;77.188;2023-04-15T11:00:20;33.75;;;12.15;;
26201;SDS011;13944;28.562;77.188;2023-04-15T11:05:21;31.73;;;12.63;;
26201;SDS011;13944;28.562;77.188;2023-04-15T11:07:49;30.20;;;13.13;;
26201;SDS011;13944;28.562;77.188;2023-04-15T11:15:48;34.55;;;13.73;;
26201;SDS011;13944;28.562;77.188;2023-04-15T11:18:26;37.85;;;13.75;;
26201;SDS011;13944;28.562;77.188;2023-04-15T11:20:53;36.95;;;16.60;;
26201;SDS011;13944;28.562;77.188;2023-04-15T11:25:58;42.88;;;17.85;;
26201;SDS011;13944;28.562;77.188;2023-04-15T11:28:25;47.83;;;19.40;;
26201;SDS011;13944;28.562;77.188;2023-04-15T11:30:52;47.35;;;19.38;;
26201;SDS011;13944;28.562;77.188;2023-04-15T11:33:20;38.20;;;18.63;;
26201;SDS011;13944;28.562;77.188;2023-04-15T11:35:47;48.95;;;19.98;;
26201;SDS011;13944;28.562;77.188;2023-04-15T11:38:14;45.08;;;19.25;;
26201;SDS011;13944;28.562;77.188;2023-04-15T11:40:41;41.75;;;18.02;;
26201;SDS011;13944;28.562;77.188;2023-04-15T11:45:35;47.10;;;17.65;;
26201;SDS011;13944;28.562;77.188;2023-04-15T11:48:05;41.85;;;17.00;;
26201;SDS011;13944;28.562;77.188;2023-04-15T11:50:32;36.92;;;16.40;;
26201;SDS011;13944;28.562;77.188;2023-04-15T11:53:00;40.88;;;16.15;;
26201;SDS011;13944;28.562;77.188;2023-04-15T11:55:27;42.50;;;16.85;;
26201;SDS011;13944;28.562;77.188;2023-04-15T12:00:36;37.55;;;15.02;;
26201;SDS011;13944;28.562;77.188;2023-04-15T12:03:38;38.45;;;15.38;;
26201;SDS011;13944;28.562;77.188;2023-04-15T12:06:04;37.45;;;15.35;;
26201;SDS011;13944;28.562;77.188;2023-04-15T12:11:16;37.42;;;15.52;;
26201;SDS011;13944;28.562;77.188;2023-04-15T12:13:43;38.00;;;15.00;;
26201;SDS011;13944;28.562;77.188;2023-04-15T12:16:09;39.65;;;15.75;;
26201;SDS011;13944;28.562;77.188;2023-04-15T12:18:37;37.75;;;15.60;;
26201;SDS011;13944;28.562;77.188;2023-04-15T12:21:08;37.35;;;14.90;;
26201;SDS011;13944;28.562;77.188;2023-04-15T12:23:39;41.00;;;15.48;;
26201;SDS011;13944;28.562;77.188;2023-04-15T12:26:05;49.08;;;17.10;;
26201;SDS011;13944;28.562;77.188;2023-04-15T12:28:35;40.08;;;16.42;;
26201;SDS011;13944;28.562;77.188;2023-04-15T12:31:08;50.22;;;16.30;;
26201;SDS011;13944;28.562;77.188;2023-04-15T12:33:35;47.28;;;16.27;;
26201;SDS011;13944;28.562;77.188;2023-04-15T12:36:02;41.90;;;16.35;;
26201;SDS011;13944;28.562;77.188;2023-04-15T12:38:29;40.92;;;15.90;;
26201;SDS011;13944;28.562;77.188;2023-04-15T12:40:59;40.72;;;16.92;;
26201;SDS011;13944;28.562;77.188;2023-04-15T12:43:26;39.75;;;16.55;;
26201;SDS011;13944;28.562;77.188;2023-04-15T12:45:52;48.17;;;19.45;;
26201;SDS011;13944;28.562;77.188;2023-04-15T12:48:19;41.80;;;17.75;;
26201;SDS011;13944;28.562;77.188;2023-04-15T12:50:45;40.83;;;17.77;;
26201;SDS011;13944;28.562;77.188;2023-04-15T12:53:12;41.17;;;18.42;;
26201;SDS011;13944;28.562;77.188;2023-04-15T12:55:38;43.03;;;18.70;;
26201;SDS011;13944;28.562;77.188;2023-04-15T12:58:05;48.55;;;20.58;;
26201;SDS011;13944;28.562;77.188;2023-04-15T13:00:34;60.65;;;24.05;;
26201;SDS011;13944;28.562;77.188;2023-04-15T13:03:01;58.15;;;22.67;;
26201;SDS011;13944;28.562;77.188;2023-04-15T13:05:27;57.63;;;25.25;;
26201;SDS011;13944;28.562;77.188;2023-04-15T13:07:54;60.28;;;25.92;;
26201;SDS011;13944;28.562;77.188;2023-04-15T13:10:20;63.70;;;26.48;;
26201;SDS011;13944;28.562;77.188;2023-04-15T13:12:50;58.58;;;27.08;;
26201;SDS011;13944;28.562;77.188;2023-04-15T13:15:18;66.90;;;27.70;;
26201;SDS011;13944;28.562;77.188;2023-04-15T13:17:47;69.30;;;27.65;;
26201;SDS011;13944;28.562;77.188;2023-04-15T13:20:13;73.50;;;30.38;;
26201;SDS011;13944;28.562;77.188;2023-04-15T13:22:40;63.45;;;30.10;;
26201;SDS011;13944;28.562;77.188;2023-04-15T13:25:06;78.47;;;29.75;;
26201;SDS011;13944;28.562;77.188;2023-04-15T13:27:33;80.30;;;30.63;;
26201;SDS011;13944;28.562;77.188;2023-04-15T13:30:00;79.47;;;30.45;;
26201;SDS011;13944;28.562;77.188;2023-04-15T13:32:29;83.03;;;29.98;;
26201;SDS011;13944;28.562;77.188;2023-04-15T13:34:56;77.40;;;31.50;;
26201;SDS011;13944;28.562;77.188;2023-04-15T13:37:27;95.68;;;38.13;;
26201;SDS011;13944;28.562;77.188;2023-04-15T13:39:54;91.05;;;39.88;;
26201;SDS011;13944;28.562;77.188;2023-04-15T13:42:21;93.10;;;42.65;;
26201;SDS011;13944;28.562;77.188;2023-04-15T13:44:48;108.05;;;48.55;;
26201;SDS011;13944;28.562;77.188;2023-04-15T13:47:18;132.68;;;51.58;;
26201;SDS011;13944;28.562;77.188;2023-04-15T13:49:45;125.80;;;53.13;;
26201;SDS011;13944;28.562;77.188;2023-04-15T13:52:12;122.93;;;51.08;;
26201;SDS011;13944;28.562;77.188;2023-04-15T13:54:38;115.05;;;49.95;;
26201;SDS011;13944;28.562;77.188;2023-04-15T13:57:05;109.80;;;45.78;;
26201;SDS011;13944;28.562;77.188;2023-04-15T13:59:32;109.50;;;44.83;;
26201;SDS011;13944;28.562;77.188;2023-04-15T14:02:01;104.35;;;42.47;;
26201;SDS011;13944;28.562;77.188;2023-04-15T14:04:29;117.53;;;43.08;;
26201;SDS011;13944;28.562;77.188;2023-04-15T14:06:55;98.85;;;41.40;;
26201;SDS011;13944;28.562;77.188;2023-04-15T14:09:22;98.97;;;41.88;;
26201;SDS011;13944;28.562;77.188;2023-04-15T14:11:49;100.85;;;42.17;;
26201;SDS011;13944;28.562;77.188;2023-04-15T14:14:16;97.00;;;42.80;;
26201;SDS011;13944;28.562;77.188;2023-04-15T14:16:42;111.05;;;43.97;;
26201;SDS011;13944;28.562;77.188;2023-04-15T14:19:09;89.03;;;41.15;;
26201;SDS011;13944;28.562;77.188;2023-04-15T14:21:35;107.75;;;44.10;;
26201;SDS011;13944;28.562;77.188;2023-04-15T14:24:02;112.68;;;44.50;;
26201;SDS011;13944;28.562;77.188;2023-04-15T14:26:29;110.30;;;43.03;;
26201;SDS011;13944;28.562;77.188;2023-04-15T14:28:55;104.57;;;47.40;;